sensor_id;sensor_type;location;lat;lon;timestamp;P1;P2;P0
68713;PMS7003;55690;51.566;19.198;2023-02-28T00:02:38;4;3;3
68713;PMS7003;55690;51.566;19.198;2023-02-28T00:06:44;4;4;4
68713;PMS7003;55690;51.566;19.198;2023-02-28T00:10:50;11;3;1
68713;PMS7003;55690;51.566;19.198;2023-02-28T00:14:56;9;4;4
68713;PMS7003;55690;51.566;19.198;2023-02-28T00:19:02;7;2;2
68713;PMS7003;55690;51.566;19.198;2023-02-28T00:23:08;5;3;2
68713;PMS7003;55690;51.566;19.198;2023-02-28T00:27:15;13;6;4
68713;PMS7003;55690;51.566;19.198;2023-02-28T00:31:21;8;7;4
68713;PMS7003;55690;51.566;19.198;2023-02-28T00:35:27;4;3;3
68713;PMS7003;55690;51.566;19.198;2023-02-28T00:39:34;7;5;4
68713;PMS7003;55690;51.566;19.198;2023-02-28T00:43:40;6;4;4
68713;PMS7003;55690;51.566;19.198;2023-02-28T00:47:46;10;10;8
68713;PMS7003;55690;51.566;19.198;2023-02-28T00:51:53;2;2;2
68713;PMS7003;55690;51.566;19.198;2023-02-28T00:55:58;7;7;5
68713;PMS7003;55690;51.566;19.198;2023-02-28T01:00:05;8;5;5
68713;PMS7003;55690;51.566;19.198;2023-02-28T01:04:11;15;6;5
68713;PMS7003;55690;51.566;19.198;2023-02-28T01:08:17;6;6;5
68713;PMS7003;55690;51.566;19.198;2023-02-28T01:12:23;3;2;2
68713;PMS7003;55690;51.566;19.198;2023-02-28T01:16:29;8;5;4
68713;PMS7003;55690;51.566;19.198;2023-02-28T01:20:36;10;9;6
68713;PMS7003;55690;51.566;19.198;2023-02-28T01:24:42;4;2;1
68713;PMS7003;55690;51.566;19.198;2023-02-28T01:28:48;17;6;4
68713;PMS7003;55690;51.566;19.198;2023-02-28T01:32:54;9;7;6
68713;PMS7003;55690;51.566;19.198;2023-02-28T01:37:00;5;3;3
68713;PMS7003;55690;51.566;19.198;2023-02-28T01:41:07;14;6;5
68713;PMS7003;55690;51.566;19.198;2023-02-28T01:49:24;7;6;3
68713;PMS7003;55690;51.566;19.198;2023-02-28T01:53:32;5;4;3
68713;PMS7003;55690;51.566;19.198;2023-02-28T01:57:38;12;4;4
68713;PMS7003;55690;51.566;19.198;2023-02-28T02:01:43;6;5;3
68713;PMS7003;55690;51.566;19.198;2023-02-28T02:05:45;6;4;4
68713;PMS7003;55690;51.566;19.198;2023-02-28T02:09:50;8;5;3
68713;PMS7003;55690;51.566;19.198;2023-02-28T02:14:09;2;2;2
68713;PMS7003;55690;51.566;19.198;2023-02-28T02:47:43;10;5;4
68713;PMS7003;55690;51.566;19.198;2023-02-28T02:51:47;0;0;0
68713;PMS7003;55690;51.566;19.198;2023-02-28T02:55:50;6;4;3
68713;PMS7003;55690;51.566;19.198;2023-02-28T02:59:55;5;4;2
68713;PMS7003;55690;51.566;19.198;2023-02-28T03:03:59;3;3;2
68713;PMS7003;55690;51.566;19.198;2023-02-28T03:08:04;3;3;1
68713;PMS7003;55690;51.566;19.198;2023-02-28T03:12:08;10;5;5
68713;PMS7003;55690;51.566;19.198;2023-02-28T03:16:22;4;3;2
68713;PMS7003;55690;51.566;19.198;2023-02-28T03:20:35;4;4;2
68713;PMS7003;55690;51.566;19.198;2023-02-28T03:24:49;9;4;2
68713;PMS7003;55690;51.566;19.198;2023-02-28T03:33:21;14;2;1
68713;PMS7003;55690;51.566;19.198;2023-02-28T03:37:26;4;4;3
68713;PMS7003;55690;51.566;19.198;2023-02-28T03:41:38;9;7;6
68713;PMS7003;55690;51.566;19.198;2023-02-28T03:45:50;20;5;4
68713;PMS7003;55690;51.566;19.198;2023-02-28T03:49:54;6;6;4
68713;PMS7003;55690;51.566;19.198;2023-02-28T03:54:04;6;5;3
68713;PMS7003;55690;51.566;19.198;2023-02-28T04:02:25;9;8;6
68713;PMS7003;55690;51.566;19.198;2023-02-28T04:06:29;8;7;5
68713;PMS7003;55690;51.566;19.198;2023-02-28T04:10:33;16;4;4
68713;PMS7003;55690;51.566;19.198;2023-02-28T04:14:35;11;7;5
68713;PMS7003;55690;51.566;19.198;2023-02-28T04:18:36;8;6;4
68713;PMS7003;55690;51.566;19.198;2023-02-28T04:22:38;6;4;3
68713;PMS7003;55690;51.566;19.198;2023-02-28T04:26:40;12;4;3
68713;PMS7003;55690;51.566;19.198;2023-02-28T04:30:44;3;1;0
68713;PMS7003;55690;51.566;19.198;2023-02-28T04:34:45;5;5;3
68713;PMS7003;55690;51.566;19.198;2023-02-28T04:38:47;11;9;5
68713;PMS7003;55690;51.566;19.198;2023-02-28T04:42:48;8;6;4
68713;PMS7003;55690;51.566;19.198;2023-02-28T04:46:50;5;5;4
68713;PMS7003;55690;51.566;19.198;2023-02-28T04:50:51;10;10;7
68713;PMS7003;55690;51.566;19.198;2023-02-28T04:54:53;10;6;4
68713;PMS7003;55690;51.566;19.198;2023-02-28T04:58:54;8;7;7
68713;PMS7003;55690;51.566;19.198;2023-02-28T05:02:56;9;4;3
68713;PMS7003;55690;51.566;19.198;2023-02-28T05:06:57;11;7;6
68713;PMS7003;55690;51.566;19.198;2023-02-28T05:10:59;8;7;2
68713;PMS7003;55690;51.566;19.198;2023-02-28T05:15:04;15;9;6
68713;PMS7003;55690;51.566;19.198;2023-02-28T05:19:06;6;4;3
68713;PMS7003;55690;51.566;19.198;2023-02-28T05:23:08;11;11;5
68713;PMS7003;55690;51.566;19.198;2023-02-28T05:27:13;4;4;4
68713;PMS7003;55690;51.566;19.198;2023-02-28T05:31:14;10;4;2
68713;PMS7003;55690;51.566;19.198;2023-02-28T05:35:17;9;6;3
68713;PMS7003;55690;51.566;19.198;2023-02-28T05:39:18;5;5;4
68713;PMS7003;55690;51.566;19.198;2023-02-28T05:43:20;9;5;4
68713;PMS7003;55690;51.566;19.198;2023-02-28T05:47:22;10;8;7
68713;PMS7003;55690;51.566;19.198;2023-02-28T05:51:24;10;8;6
68713;PMS7003;55690;51.566;19.198;2023-02-28T05:55:30;7;7;5
68713;PMS7003;55690;51.566;19.198;2023-02-28T05:59:36;21;8;6
68713;PMS7003;55690;51.566;19.198;2023-02-28T06:03:43;5;4;2
68713;PMS7003;55690;51.566;19.198;2023-02-28T06:07:49;16;7;5
68713;PMS7003;55690;51.566;19.198;2023-02-28T06:12:03;19;6;4
68713;PMS7003;55690;51.566;19.198;2023-02-28T06:16:10;14;9;7
68713;PMS7003;55690;51.566;19.198;2023-02-28T06:20:15;11;6;5
68713;PMS7003;55690;51.566;19.198;2023-02-28T06:24:21;14;9;6
68713;PMS7003;55690;51.566;19.198;2023-02-28T06:28:27;11;7;6
68713;PMS7003;55690;51.566;19.198;2023-02-28T06:32:33;8;8;6
68713;PMS7003;55690;51.566;19.198;2023-02-28T06:36:40;13;10;8
68713;PMS7003;55690;51.566;19.198;2023-02-28T06:40:52;11;6;3
68713;PMS7003;55690;51.566;19.198;2023-02-28T06:44:58;5;5;4
68713;PMS7003;55690;51.566;19.198;2023-02-28T06:48:59;2;0;0
68713;PMS7003;55690;51.566;19.198;2023-02-28T06:53:04;23;14;10
68713;PMS7003;55690;51.566;19.198;2023-02-28T06:57:10;16;5;3
68713;PMS7003;55690;51.566;19.198;2023-02-28T07:01:16;17;12;7
68713;PMS7003;55690;51.566;19.198;2023-02-28T07:05:22;38;22;14
68713;PMS7003;55690;51.566;19.198;2023-02-28T07:09:29;44;26;16
68713;PMS7003;55690;51.566;19.198;2023-02-28T07:13:35;27;16;12
68713;PMS7003;55690;51.566;19.198;2023-02-28T07:17:41;15;15;11
68713;PMS7003;55690;51.566;19.198;2023-02-28T07:21:47;13;11;8
68713;PMS7003;55690;51.566;19.198;2023-02-28T07:25:53;11;9;5
68713;PMS7003;55690;51.566;19.198;2023-02-28T07:30:00;14;11;7
68713;PMS7003;55690;51.566;19.198;2023-02-28T07:34:06;21;16;12
68713;PMS7003;55690;51.566;19.198;2023-02-28T07:38:12;19;15;10
68713;PMS7003;55690;51.566;19.198;2023-02-28T07:42:18;25;16;11
68713;PMS7003;55690;51.566;19.198;2023-02-28T07:46:25;21;14;11
68713;PMS7003;55690;51.566;19.198;2023-02-28T07:50:31;19;10;7
68713;PMS7003;55690;51.566;19.198;2023-02-28T07:57:59;0;0;0
68713;PMS7003;55690;51.566;19.198;2023-02-28T08:02:01;13;13;9
68713;PMS7003;55690;51.566;19.198;2023-02-28T08:06:03;8;7;5
68713;PMS7003;55690;51.566;19.198;2023-02-28T08:10:06;12;11;8
68713;PMS7003;55690;51.566;19.198;2023-02-28T08:14:10;9;7;5
68713;PMS7003;55690;51.566;19.198;2023-02-28T08:18:12;11;10;8
68713;PMS7003;55690;51.566;19.198;2023-02-28T08:22:13;6;6;4
68713;PMS7003;55690;51.566;19.198;2023-02-28T08:26:15;5;4;3
68713;PMS7003;55690;51.566;19.198;2023-02-28T08:30:17;6;6;4
68713;PMS7003;55690;51.566;19.198;2023-02-28T08:34:19;7;7;4
68713;PMS7003;55690;51.566;19.198;2023-02-28T08:38:21;9;2;2
68713;PMS7003;55690;51.566;19.198;2023-02-28T08:42:24;10;8;7
68713;PMS7003;55690;51.566;19.198;2023-02-28T08:46:25;8;4;4
68713;PMS7003;55690;51.566;19.198;2023-02-28T08:50:27;3;3;3
68713;PMS7003;55690;51.566;19.198;2023-02-28T08:54:28;4;4;4
68713;PMS7003;55690;51.566;19.198;2023-02-28T08:58:34;4;4;3
68713;PMS7003;55690;51.566;19.198;2023-02-28T09:02:36;4;4;3
68713;PMS7003;55690;51.566;19.198;2023-02-28T09:06:37;8;5;4
68713;PMS7003;55690;51.566;19.198;2023-02-28T09:10:39;17;5;4
68713;PMS7003;55690;51.566;19.198;2023-02-28T09:14:41;6;6;4
68713;PMS7003;55690;51.566;19.198;2023-02-28T09:18:43;4;2;2
68713;PMS7003;55690;51.566;19.198;2023-02-28T09:22:45;7;7;6
68713;PMS7003;55690;51.566;19.198;2023-02-28T09:26:46;4;4;3
68713;PMS7003;55690;51.566;19.198;2023-02-28T09:30:49;5;5;4
68713;PMS7003;55690;51.566;19.198;2023-02-28T09:34:52;7;3;2
68713;PMS7003;55690;51.566;19.198;2023-02-28T09:38:54;8;5;4
68713;PMS7003;55690;51.566;19.198;2023-02-28T09:42:55;5;5;3
68713;PMS7003;55690;51.566;19.198;2023-02-28T09:47:01;8;8;6
68713;PMS7003;55690;51.566;19.198;2023-02-28T09:51:15;4;4;4
68713;PMS7003;55690;51.566;19.198;2023-02-28T09:55:28;8;7;4
68713;PMS7003;55690;51.566;19.198;2023-02-28T10:08:05;7;6;5
68713;PMS7003;55690;51.566;19.198;2023-02-28T10:12:12;8;7;4
68713;PMS7003;55690;51.566;19.198;2023-02-28T10:16:18;3;2;2
68713;PMS7003;55690;51.566;19.198;2023-02-28T10:20:28;4;3;3
68713;PMS7003;55690;51.566;19.198;2023-02-28T10:24:35;5;5;3
68713;PMS7003;55690;51.566;19.198;2023-02-28T10:28:41;6;6;5
68713;PMS7003;55690;51.566;19.198;2023-02-28T10:32:47;8;5;4
68713;PMS7003;55690;51.566;19.198;2023-02-28T10:36:53;5;4;3
68713;PMS7003;55690;51.566;19.198;2023-02-28T10:53:32;5;3;3
68713;PMS7003;55690;51.566;19.198;2023-02-28T10:57:36;5;5;5
68713;PMS7003;55690;51.566;19.198;2023-02-28T11:01:41;25;9;8
68713;PMS7003;55690;51.566;19.198;2023-02-28T11:05:53;10;4;4
68713;PMS7003;55690;51.566;19.198;2023-02-28T11:09:56;14;7;5
68713;PMS7003;55690;51.566;19.198;2023-02-28T11:14:14;5;5;4
68713;PMS7003;55690;51.566;19.198;2023-02-28T11:22:20;6;6;5
68713;PMS7003;55690;51.566;19.198;2023-02-28T11:30:38;7;5;4
68713;PMS7003;55690;51.566;19.198;2023-02-28T11:34:42;9;2;2
68713;PMS7003;55690;51.566;19.198;2023-02-28T11:38:45;13;5;4
68713;PMS7003;55690;51.566;19.198;2023-02-28T11:47:06;3;2;2
68713;PMS7003;55690;51.566;19.198;2023-02-28T11:55:29;8;5;3
68713;PMS7003;55690;51.566;19.198;2023-02-28T11:59:43;15;6;5
68713;PMS7003;55690;51.566;19.198;2023-02-28T12:12:23;6;6;5
68713;PMS7003;55690;51.566;19.198;2023-02-28T12:29:23;6;5;2
68713;PMS7003;55690;51.566;19.198;2023-02-28T12:33:34;7;7;6
68713;PMS7003;55690;51.566;19.198;2023-02-28T12:37:44;9;7;3
68713;PMS7003;55690;51.566;19.198;2023-02-28T12:41:56;7;6;4
68713;PMS7003;55690;51.566;19.198;2023-02-28T12:46:08;5;3;3
68713;PMS7003;55690;51.566;19.198;2023-02-28T12:50:14;6;6;4
68713;PMS7003;55690;51.566;19.198;2023-02-28T12:54:24;7;7;6
68713;PMS7003;55690;51.566;19.198;2023-02-28T12:58:43;17;8;6
68713;PMS7003;55690;51.566;19.198;2023-02-28T13:11:22;11;6;5
68713;PMS7003;55690;51.566;19.198;2023-02-28T13:15:24;3;3;2
68713;PMS7003;55690;51.566;19.198;2023-02-28T13:19:30;8;5;4
68713;PMS7003;55690;51.566;19.198;2023-02-28T13:23:39;18;7;5
68713;PMS7003;55690;51.566;19.198;2023-02-28T13:27:56;5;3;1
68713;PMS7003;55690;51.566;19.198;2023-02-28T15:09:35;5;5;4
68713;PMS7003;55690;51.566;19.198;2023-02-28T15:13:40;7;7;5
68713;PMS7003;55690;51.566;19.198;2023-02-28T15:17:48;11;10;6
68713;PMS7003;55690;51.566;19.198;2023-02-28T15:21:55;9;6;4
68713;PMS7003;55690;51.566;19.198;2023-02-28T15:26:02;10;7;6
68713;PMS7003;55690;51.566;19.198;2023-02-28T15:30:06;9;4;3
68713;PMS7003;55690;51.566;19.198;2023-02-28T15:34:22;9;8;6
68713;PMS7003;55690;51.566;19.198;2023-02-28T15:38:32;7;7;4
68713;PMS7003;55690;51.566;19.198;2023-02-28T15:42:36;15;10;8
68713;PMS7003;55690;51.566;19.198;2023-02-28T15:46:38;14;7;4
68713;PMS7003;55690;51.566;19.198;2023-02-28T15:50:41;9;4;3
68713;PMS7003;55690;51.566;19.198;2023-02-28T15:54:43;10;8;5
68713;PMS7003;55690;51.566;19.198;2023-02-28T15:58:47;15;7;5
68713;PMS7003;55690;51.566;19.198;2023-02-28T16:02:49;9;7;6
68713;PMS7003;55690;51.566;19.198;2023-02-28T16:11:02;10;8;7
68713;PMS7003;55690;51.566;19.198;2023-02-28T16:19:17;10;9;8
68713;PMS7003;55690;51.566;19.198;2023-02-28T16:23:19;13;8;6
68713;PMS7003;55690;51.566;19.198;2023-02-28T16:27:22;18;14;10
68713;PMS7003;55690;51.566;19.198;2023-02-28T16:31:32;18;15;7
68713;PMS7003;55690;51.566;19.198;2023-02-28T16:35:38;20;17;11
68713;PMS7003;55690;51.566;19.198;2023-02-28T16:39:39;38;28;17
68713;PMS7003;55690;51.566;19.198;2023-02-28T16:43:43;35;21;16
68713;PMS7003;55690;51.566;19.198;2023-02-28T16:47:45;16;15;11
68713;PMS7003;55690;51.566;19.198;2023-02-28T16:51:47;27;20;14
68713;PMS7003;55690;51.566;19.198;2023-02-28T16:55:49;23;18;12
68713;PMS7003;55690;51.566;19.198;2023-02-28T16:59:51;30;17;10
68713;PMS7003;55690;51.566;19.198;2023-02-28T17:03:53;18;16;12
68713;PMS7003;55690;51.566;19.198;2023-02-28T17:07:54;24;17;11
68713;PMS7003;55690;51.566;19.198;2023-02-28T17:11:56;15;10;7
68713;PMS7003;55690;51.566;19.198;2023-02-28T17:15:57;21;18;11
68713;PMS7003;55690;51.566;19.198;2023-02-28T17:19:58;45;15;9
68713;PMS7003;55690;51.566;19.198;2023-02-28T17:24:00;29;19;14
68713;PMS7003;55690;51.566;19.198;2023-02-28T17:28:01;14;12;10
68713;PMS7003;55690;51.566;19.198;2023-02-28T17:32:04;17;13;8
68713;PMS7003;55690;51.566;19.198;2023-02-28T17:36:05;27;15;10
68713;PMS7003;55690;51.566;19.198;2023-02-28T17:40:13;12;10;8
68713;PMS7003;55690;51.566;19.198;2023-02-28T17:44:20;15;13;10
68713;PMS7003;55690;51.566;19.198;2023-02-28T17:48:21;15;12;8
68713;PMS7003;55690;51.566;19.198;2023-02-28T17:52:23;19;17;13
68713;PMS7003;55690;51.566;19.198;2023-02-28T17:56:25;28;21;16
68713;PMS7003;55690;51.566;19.198;2023-02-28T18:00:27;22;18;10
68713;PMS7003;55690;51.566;19.198;2023-02-28T18:04:28;26;19;14
68713;PMS7003;55690;51.566;19.198;2023-02-28T18:08:30;17;16;13
68713;PMS7003;55690;51.566;19.198;2023-02-28T18:12:36;15;11;5
68713;PMS7003;55690;51.566;19.198;2023-02-28T18:16:38;38;26;15
68713;PMS7003;55690;51.566;19.198;2023-02-28T18:20:40;23;19;12
68713;PMS7003;55690;51.566;19.198;2023-02-28T18:24:41;38;27;17
68713;PMS7003;55690;51.566;19.198;2023-02-28T18:28:43;32;23;16
68713;PMS7003;55690;51.566;19.198;2023-02-28T18:32:45;31;19;14
68713;PMS7003;55690;51.566;19.198;2023-02-28T18:36:46;35;23;15
68713;PMS7003;55690;51.566;19.198;2023-02-28T18:40:51;17;10;4
68713;PMS7003;55690;51.566;19.198;2023-02-28T18:44:54;32;21;15
68713;PMS7003;55690;51.566;19.198;2023-02-28T18:48:55;35;24;13
68713;PMS7003;55690;51.566;19.198;2023-02-28T18:52:57;27;21;13
68713;PMS7003;55690;51.566;19.198;2023-02-28T18:56:59;29;23;15
68713;PMS7003;55690;51.566;19.198;2023-02-28T19:01:01;52;36;22
68713;PMS7003;55690;51.566;19.198;2023-02-28T19:05:04;44;32;18
68713;PMS7003;55690;51.566;19.198;2023-02-28T19:09:06;61;34;23
68713;PMS7003;55690;51.566;19.198;2023-02-28T19:13:08;47;33;23
68713;PMS7003;55690;51.566;19.198;2023-02-28T19:17:10;52;37;23
68713;PMS7003;55690;51.566;19.198;2023-02-28T19:21:12;59;34;20
68713;PMS7003;55690;51.566;19.198;2023-02-28T19:25:16;43;35;20
68713;PMS7003;55690;51.566;19.198;2023-02-28T19:29:19;25;19;13
68713;PMS7003;55690;51.566;19.198;2023-02-28T19:33:20;52;29;18
68713;PMS7003;55690;51.566;19.198;2023-02-28T19:37:21;28;23;11
68713;PMS7003;55690;51.566;19.198;2023-02-28T19:41:23;39;27;17
68713;PMS7003;55690;51.566;19.198;2023-02-28T19:45:24;40;26;18
68713;PMS7003;55690;51.566;19.198;2023-02-28T19:49:26;27;23;17
68713;PMS7003;55690;51.566;19.198;2023-02-28T19:53:31;22;14;9
68713;PMS7003;55690;51.566;19.198;2023-02-28T19:57:33;36;22;14
68713;PMS7003;55690;51.566;19.198;2023-02-28T20:01:35;20;18;10
68713;PMS7003;55690;51.566;19.198;2023-02-28T20:05:38;15;15;11
68713;PMS7003;55690;51.566;19.198;2023-02-28T20:09:39;31;26;17
68713;PMS7003;55690;51.566;19.198;2023-02-28T20:13:41;28;21;14
68713;PMS7003;55690;51.566;19.198;2023-02-28T20:17:43;33;22;14
68713;PMS7003;55690;51.566;19.198;2023-02-28T20:21:49;41;24;15
68713;PMS7003;55690;51.566;19.198;2023-02-28T20:25:59;30;20;11
68713;PMS7003;55690;51.566;19.198;2023-02-28T20:30:02;25;21;17
68713;PMS7003;55690;51.566;19.198;2023-02-28T20:34:08;36;25;16
68713;PMS7003;55690;51.566;19.198;2023-02-28T20:38:14;26;19;10
68713;PMS7003;55690;51.566;19.198;2023-02-28T20:42:20;26;23;17
68713;PMS7003;55690;51.566;19.198;2023-02-28T20:46:27;40;24;15
68713;PMS7003;55690;51.566;19.198;2023-02-28T20:50:33;34;27;18
68713;PMS7003;55690;51.566;19.198;2023-02-28T20:54:39;35;25;17
68713;PMS7003;55690;51.566;19.198;2023-02-28T20:58:46;26;19;13
68713;PMS7003;55690;51.566;19.198;2023-02-28T21:02:51;27;21;14
68713;PMS7003;55690;51.566;19.198;2023-02-28T21:06:58;41;28;19
68713;PMS7003;55690;51.566;19.198;2023-02-28T21:11:07;49;25;13
68713;PMS7003;55690;51.566;19.198;2023-02-28T21:15:10;48;21;11
68713;PMS7003;55690;51.566;19.198;2023-02-28T21:19:16;26;22;12
68713;PMS7003;55690;51.566;19.198;2023-02-28T21:23:22;29;17;12
68713;PMS7003;55690;51.566;19.198;2023-02-28T21:27:29;26;19;11
68713;PMS7003;55690;51.566;19.198;2023-02-28T21:31:35;41;31;17
68713;PMS7003;55690;51.566;19.198;2023-02-28T21:35:41;31;24;18
68713;PMS7003;55690;51.566;19.198;2023-02-28T21:39:47;33;26;16
68713;PMS7003;55690;51.566;19.198;2023-02-28T21:43:54;33;20;11
68713;PMS7003;55690;51.566;19.198;2023-02-28T21:47:59;32;24;14
68713;PMS7003;55690;51.566;19.198;2023-02-28T21:52:06;40;34;19
68713;PMS7003;55690;51.566;19.198;2023-02-28T21:56:19;26;19;11
68713;PMS7003;55690;51.566;19.198;2023-02-28T22:00:25;34;18;7
68713;PMS7003;55690;51.566;19.198;2023-02-28T22:04:27;36;19;14
68713;PMS7003;55690;51.566;19.198;2023-02-28T22:08:30;39;25;15
68713;PMS7003;55690;51.566;19.198;2023-02-28T22:12:37;16;15;9
68713;PMS7003;55690;51.566;19.198;2023-02-28T22:16:43;21;19;12
68713;PMS7003;55690;51.566;19.198;2023-02-28T22:20:53;21;14;11
68713;PMS7003;55690;51.566;19.198;2023-02-28T22:24:55;25;20;11
68713;PMS7003;55690;51.566;19.198;2023-02-28T22:29:01;21;19;10
68713;PMS7003;55690;51.566;19.198;2023-02-28T22:33:08;23;17;12
68713;PMS7003;55690;51.566;19.198;2023-02-28T22:37:14;27;18;12
68713;PMS7003;55690;51.566;19.198;2023-02-28T22:41:21;23;16;10
68713;PMS7003;55690;51.566;19.198;2023-02-28T22:45:26;17;10;7
68713;PMS7003;55690;51.566;19.198;2023-02-28T22:49:32;41;23;12
68713;PMS7003;55690;51.566;19.198;2023-02-28T22:53:39;37;17;12
68713;PMS7003;55690;51.566;19.198;2023-02-28T22:57:45;26;12;8
68713;PMS7003;55690;51.566;19.198;2023-02-28T23:01:51;22;12;8
68713;PMS7003;55690;51.566;19.198;2023-02-28T23:05:57;13;10;7
68713;PMS7003;55690;51.566;19.198;2023-02-28T23:10:05;11;11;7
68713;PMS7003;55690;51.566;19.198;2023-02-28T23:14:10;24;19;10
68713;PMS7003;55690;51.566;19.198;2023-02-28T23:18:16;23;21;14
68713;PMS7003;55690;51.566;19.198;2023-02-28T23:22:22;20;8;6
68713;PMS7003;55690;51.566;19.198;2023-02-28T23:26:29;17;11;7
68713;PMS7003;55690;51.566;19.198;2023-02-28T23:30:37;31;24;16
68713;PMS7003;55690;51.566;19.198;2023-02-28T23:34:41;26;20;15
68713;PMS7003;55690;51.566;19.198;2023-02-28T23:38:48;33;24;13
68713;PMS7003;55690;51.566;19.198;2023-02-28T23:42:53;25;17;10
68713;PMS7003;55690;51.566;19.198;2023-02-28T23:46:59;43;33;20
68713;PMS7003;55690;51.566;19.198;2023-02-28T23:51:07;29;23;16
68713;PMS7003;55690;51.566;19.198;2023-02-28T23:55:12;31;15;11
68713;PMS7003;55690;51.566;19.198;2023-02-28T23:59:18;37;23;16
